メキシコシティ の空港の天気 - METARとTAF

メキシコ・シティ国際空港 ( MMMX / MEX ) - メキシコ メキシコシティ
飛行場実況気象(Metar)
観測時間10/01 09:41 CDT (10/01 14:41 UTC)
風向・風速東 2m/s
視程10km以上
天気現象
なし
気温14℃
湿度63%
気圧1013.8hPa
METARMMMX 011441Z 10003KT 7SM SKC 14/07 A3038 NOSIG RMK SLP138 52013 967 HZY CI
過去の天気等 Google飛行場航空写真 Wunderground天気予報

過去48時間のMETAR

飛行場予報(TAF)
発表時間: 10/01 05:18 CDT (10/01 10:18 UTC)
予報対象時間: 1日7時 CDT ~ 2日13時 CDT
風向・風速東 3m/s
視程10km以上
天気現象煙霧
なし
1日13時 CDT から
風向・風速東北東 5m/s
視程10km以上
全天の4割程度の雲 雲底高度 610m
全天の4割程度の雲 雲底高度 6100m
1日17時 CDT ~ 1日21時 CDT に一時的に
視程10km以上
天気現象弱い雨
全天の4割程度の積乱雲 雲底高度 610m
2日0時 CDT から
風向・風速北北東 3m/s
視程10km以上
天気現象煙霧
なし
2日13時 CDT から
風向・風速北北東 5m/s
視程10km以上
なし
TAF MMMX 011018Z 0112/0218 08005KT 6SM HZ SKC TX24/0122Z TN10/0112Z
FM011800 06010KT P6SM SCT020 SCT200
TEMPO 0122/0202 6SM -RA SCT020CB
FM020500 03005KT 6SM HZ SKC
FM021800 03010KT P6SM SKC